Bokoshe, OK (74930)

11:16 AM CDT on July 29, 2014 (GMT -0500)
LCEM - LeFlore County EOC (KOKPOTEA2) Elev 509 ft | 35.05 °N, 94.63 °W | Change Station

Current weather conditions updated 12 seconds ago

Clear
Clear
82.5 °F
Feels Like 84 °F
N
0.0
Wind Variable Wind from WSW
Gusts 4.0 mph

Today is forecast to be nearly the same temperature as yesterday.

Today
High -- | Low -- °F
--% Chance of Precip.
Yesterday
High -- | Low -- °F
Precip. -- in
6:26 AM 8:24 PM
Waxing Crescent, 7% visible
Pressure 30.16 in
Visibility 10.0 miles
Clouds Clear
Heat Index 84 °F
Dew Point 64 °F
Humidity 53%
Rainfall 0.00 in
Snow Depth Not available.
UV 8 out of 12
Pollen 4.90 out of 12
Air Quality Not available.
Flu Activity Not available.
METAR KRKR 291555Z AUTO 00000KT 10SM CLR 26/17 A3016 RMK AO2 T02550166

More Conditions Fewer Conditions

Pressure 30.16 in
Visibility 10.0 miles
Clouds Clear
Heat Index 84 °F
Dew Point 64 °F
Humidity 53%
Rainfall 0.00 in
Snow Depth Not available.
UV 8 out of 12
Pollen 4.90 out of 12
Air Quality Not available.
Flu Activity Not available.
METAR KRKR 291555Z AUTO 00000KT 10SM CLR 26/17 A3016 RMK AO2 T02550166

More Conditions Fewer Conditions

10-Day Weather Forecast

Almanac

Astronomy

Jul. 29, 2014 Rise Set
Actual Time 6:26 AM CDT 8:24 PM CDT
Civil Twilight 5:58 AM CDT 8:52 PM CDT
Nautical Twilight 5:23 AM CDT 9:26 PM CDT
Astronomical Twilight 4:47 AM CDT 10:03 PM CDT
Moon 8:55 AM CDT 9:46 PM CDT
Length of Visible Light 14h 54m
Length of Day
13h 58m
Tomorrow will be 1m 35s shorter.
Waxing Crescent, 7% of the Moon is Illuminated
Today
Waxing Crescent
Aug 3
First Quarter
Aug 10
Full
Aug 17
Last Quarter
Aug 25
New

Today's Extremes

State Highs State Lows

Community

WunderPhotos

Upload Photos

1,738,774 photos uploaded!

Nearby

Snow Depth

Station Depth Elevation
No new snow has been reported.

Earthquake Activity

City Distance Mag. Time & Date
No recent earthquake activity has been reported nearby.
Minimum magnitude displayed is 2.5.

Coastal Water Temperatures

Place Temperature
No Stations Reporting

Nearby Weather Stations

Station Location Temp. Heat Index Dew Point Humidity Wind Precip. Elev Updated Type
LCEM - LeFlore County EOC, Poteau, OK 82.5 °F 84 °F 64 °F 53% WSW  at  0.0 mph 0.00 in / hr 509 ft 11:16 AM CDT Rapid Fire
LCEM -Howe Middle School, Howe, OK 82.0 °F 83 °F 64 °F 54% SSE  at  2.0 mph 0.23 in / hr 535 ft 11:16 AM CDT Rapid Fire
HADS ARKANSAS RIVER AT WISTER D. MAYO OK, Spiro, OK 77 °F 79 °F 68 °F 74% SSE  at  4 mph 0.00 in / hr 422 ft 10:00 AM CDT MADIS
LCEM - Pocola City Hall, Pocola, OK 82.0 °F 84 °F 65 °F 57% NE  at  2.0 mph 0.00 in / hr 459 ft 11:16 AM CDT Rapid Fire
MesoWest MULDRO , Roland, OK 76 °F 74 °F - - North  at  - 0.00 in / hr 509 ft 9:00 AM CDT MADIS
MesoWest VIANN , Vian, OK 77 °F 75 °F - - North  at  - 0.00 in / hr 518 ft 9:35 AM CDT MADIS

Show More Stations Show Fewer Stations